Terminal Aerodrome Forecast
Issued by NWS Hastings, NE

Home | Current Version | Previous Version | Text Only | Print | Product List | Glossary On
Versions: 1 2 3 4 5 6 7 8 9 10 11 12 13 14 15 16 17 18 19 20 21
000
FTUS43 KGID 232320
TAFGRI
TAF
KGRI 232320Z 2400/2424 18020G28KT P6SM SCT250
     FM240600 17016G24KT P6SM FEW250 WS010/19050KT
     FM241300 17019G27KT P6SM BKN250
     FM241700 20016G24KT P6SM SCT200
     FM242000 24013G20KT P6SM FEW070 SCT200
     FM242300 30011KT P6SM FEW070 SCT200=

USA.gov is the U.S. government's official web portal to all federal, state and local government web resources and services.